Time;durP1;ratioP1;P1;durP2;ratioP2;P2;SDS_P1;SDS_P2;PMS_P1;PMS_P2;Temp;Humidity;BMP_temperature;BMP_pressure;BME280_temperature;BME280_humidity;BME280_pressure;Samples;Min_cycle;Max_cycle;Signal;HPM_P1;HPM_P2
2022/06/28 00:00:08;;;;;;;5.38;3.08;;;14.10;99.90;;;;;;6140520;23;20073;-93
2022/06/28 00:02:34;;;;;;;4.85;2.85;;;14.10;99.90;;;;;;6140481;23;20027;-93
2022/06/28 00:05:01;;;;;;;4.72;2.70;;;14.10;99.90;;;;;;6140879;23;20025;-93
2022/06/28 00:07:27;;;;;;;;;;;14.10;99.90;;;;;;6140988;23;20023;-91
2022/06/28 00:09:52;;;;;;;5.88;3.08;;;14.10;99.90;;;;;;6140565;23;20342;-94
2022/06/28 00:12:18;;;;;;;5.80;2.90;;;14.00;99.90;;;;;;6140518;23;20062;-93
2022/06/28 00:17:30;;;;;;;5.65;3.22;;;14.00;99.90;;;;;;6165611;23;20030;-93
2022/06/28 00:20:18;;;;;;;6.07;3.50;;;14.00;99.90;;;;;;6141036;23;20019;-93
2022/06/28 00:22:44;;;;;;;4.97;3.08;;;14.10;99.90;;;;;;6165700;23;20100;-90
2022/06/28 00:25:10;;;;;;;5.32;3.03;;;14.10;99.90;;;;;;6140500;23;20015;-90
2022/06/28 00:27:36;;;;;;;6.35;3.40;;;14.10;99.90;;;;;;6140593;23;20073;-91
2022/06/28 00:30:03;;;;;;;4.33;2.47;;;14.10;99.90;;;;;;6140272;23;20037;-91
2022/06/28 00:32:29;;;;;;;5.20;2.85;;;14.10;99.90;;;;;;6140398;23;20717;-91
2022/06/28 00:39:22;;;;;;;5.22;2.60;;;14.00;99.90;;;;;;6065499;23;20462;-93
2022/06/28 00:41:48;;;;;;;5.13;2.75;;;14.00;99.90;;;;;;6040557;23;20029;-92
2022/06/28 00:44:14;;;;;;;4.28;2.42;;;14.00;99.90;;;;;;6140268;23;20023;-92
2022/06/28 00:46:39;;;;;;;4.93;2.78;;;13.90;99.90;;;;;;6140546;23;20485;-92
2022/06/28 00:49:06;;;;;;;5.07;3.13;;;13.90;99.90;;;;;;6140549;23;20333;-92
2022/06/28 00:51:32;;;;;;;6.07;3.58;;;13.90;99.90;;;;;;6140338;23;20019;-92
2022/06/28 00:53:59;;;;;;;;;;;13.80;99.90;;;;;;6140991;23;20022;-92
2022/06/28 00:56:25;;;;;;;7.03;3.72;;;13.90;99.90;;;;;;6140357;23;19922;-92
2022/06/28 00:58:55;;;;;;;5.93;3.10;;;13.80;99.90;;;;;;6140582;23;20463;-92
2022/06/28 01:01:25;;;;;;;5.68;3.20;;;13.80;99.90;;;;;;6140503;23;20339;-91
2022/06/28 01:04:07;;;;;;;;;;;;;;;;;;;;;
2022/06/28 01:06:33;;;;;;;6.47;3.30;;;13.80;99.90;;;;;;6164698;23;20019;-91
2022/06/28 01:08:59;;;;;;;5.70;3.33;;;13.80;99.90;;;;;;6161639;23;20025;-92
2022/06/28 01:11:28;;;;;;;4.93;2.72;;;13.80;99.90;;;;;;6169072;23;20056;-87
2022/06/28 01:14:03;;;;;;;6.13;3.10;;;13.70;99.90;;;;;;6176156;23;20457;-91
2022/06/28 01:16:29;;;;;;;4.00;2.28;;;13.70;99.90;;;;;;6162252;23;20374;-92
2022/06/28 01:18:55;;;;;;;3.95;2.20;;;13.60;99.90;;;;;;6159172;23;20104;-91
2022/06/28 01:21:26;;;;;;;4.45;2.30;;;13.60;99.90;;;;;;6159091;23;20013;-92
2022/06/28 01:23:52;;;;;;;4.88;2.25;;;13.50;99.90;;;;;;6157925;23;20024;-92
2022/06/28 01:26:21;;;;;;;5.05;2.55;;;13.40;99.90;;;;;;6158646;23;20017;-92
2022/06/28 01:28:51;;;;;;;5.35;2.90;;;13.40;99.90;;;;;;6159118;23;20021;-92
2022/06/28 01:31:18;;;;;;;4.65;2.60;;;13.30;99.90;;;;;;6158490;23;20016;-93
2022/06/28 01:34:28;;;;;;;5.03;2.40;;;13.30;99.90;;;;;;6183580;23;20020;-93
2022/06/28 01:53:25;;;;;;;4.80;2.73;;;13.30;99.90;;;;;;6118894;23;1134770;-91
2022/06/28 01:55:51;;;;;;;5.57;3.25;;;13.30;99.90;;;;;;6164431;23;20081;-89
2022/06/28 01:58:17;;;;;;;4.85;2.40;;;13.30;99.90;;;;;;6164371;23;20019;-90
2022/06/28 02:00:47;;;;;;;4.83;2.80;;;13.40;99.90;;;;;;6139941;23;20023;-91
2022/06/28 02:03:46;;;;;;;;;;;;;;;;;;;;;
2022/06/28 02:06:47;;;;;;;4.97;2.85;;;13.40;99.90;;;;;;6164687;23;20094;-93
2022/06/28 02:09:41;;;;;;;4.38;2.60;;;13.40;99.90;;;;;;6109344;23;20360;-92
2022/06/28 02:12:07;;;;;;;4.68;2.50;;;13.30;99.90;;;;;;6139439;23;20050;-91
2022/06/28 02:40:30;;;;;;;5.30;2.90;;;13.10;99.90;;;;;;6063455;23;20026;-92
2022/06/28 02:43:11;;;;;;;6.53;2.97;;;13.10;99.90;;;;;;5987598;23;20035;-92
2022/06/28 02:46:03;;;;;;;6.35;3.55;;;13.10;99.90;;;;;;5987174;23;20030;-92
2022/06/28 02:49:03;;;;;;;6.38;3.22;;;13.00;99.90;;;;;;6072808;23;20057;-91
2022/06/28 02:51:28;;;;;;;6.07;3.00;;;13.00;99.90;;;;;;6072821;23;20110;-90
2022/06/28 02:54:08;;;;;;;5.80;3.27;;;13.10;99.90;;;;;;6023893;23;20061;-91
2022/06/28 02:56:40;;;;;;;6.35;3.20;;;13.00;99.90;;;;;;5988445;23;20255;-90
2022/06/28 03:00:07;;;;;;;5.55;2.88;;;13.00;99.90;;;;;;5988576;23;20023;-90
2022/06/28 03:02:34;;;;;;;7.15;2.60;;;13.00;99.90;;;;;;6044046;23;20568;-92
2022/06/28 03:05:12;;;;;;;5.60;3.20;;;12.90;99.90;;;;;;5990043;23;20026;-93
2022/06/28 03:07:38;;;;;;;7.13;3.95;;;12.90;99.90;;;;;;5987522;23;20027;-93
2022/06/28 03:10:05;;;;;;;6.32;3.65;;;12.90;99.90;;;;;;5988320;23;20102;-91
2022/06/28 03:12:30;;;;;;;5.78;3.03;;;12.90;99.90;;;;;;5988315;23;20081;-90
2022/06/28 03:15:04;;;;;;;5.53;3.25;;;12.90;99.90;;;;;;5988595;23;20445;-91
2022/06/28 03:17:30;;;;;;;5.88;3.13;;;12.90;99.90;;;;;;5988035;23;20019;-91
2022/06/28 03:20:13;;;;;;;5.30;3.10;;;12.90;99.90;;;;;;5988487;23;20016;-92
2022/06/28 03:22:39;;;;;;;5.80;2.92;;;12.80;99.90;;;;;;5988149;23;20023;-91
2022/06/28 03:25:06;;;;;;;5.43;3.15;;;12.90;99.90;;;;;;5988219;23;20341;-90
2022/06/28 03:27:31;;;;;;;;;;;12.90;99.90;;;;;;5988508;23;20019;-90
2022/06/28 03:29:57;;;;;;;5.60;2.78;;;12.90;99.90;;;;;;5988250;23;20001;-91
2022/06/28 03:33:40;;;;;;;5.10;3.00;;;12.90;99.90;;;;;;5988482;23;20023;-93
2022/06/28 03:50:47;;;;;;;5.50;3.25;;;13.00;99.90;;;;;;6250847;22;20023;-92
2022/06/28 03:58:24;;;;;;;4.88;2.78;;;13.10;99.90;;;;;;6064264;23;20031;-89
2022/06/28 04:00:49;;;;;;;5.55;2.90;;;13.10;99.90;;;;;;6140002;23;20526;-91
2022/06/28 04:03:15;;;;;;;6.07;2.90;;;13.20;99.90;;;;;;6139612;23;20054;-90
2022/06/28 04:05:41;;;;;;;6.27;2.93;;;13.20;99.90;;;;;;6164915;23;20149;-89
2022/06/28 04:08:08;;;;;;;5.47;2.97;;;13.30;99.90;;;;;;6165033;23;20574;-90
2022/06/28 04:11:13;;;;;;;6.10;3.10;;;13.30;99.90;;;;;;6164757;23;20021;-89
2022/06/28 04:13:41;;;;;;;7.60;3.60;;;13.40;99.90;;;;;;6119167;23;20356;-89
2022/06/28 04:16:06;;;;;;;5.40;2.55;;;13.50;99.90;;;;;;6139722;23;20050;-89
2022/06/28 04:18:32;;;;;;;4.85;2.55;;;13.50;99.90;;;;;;6139812;23;20030;-89
2022/06/28 04:20:59;;;;;;;5.68;3.15;;;13.60;99.90;;;;;;6139781;23;20348;-90
2022/06/28 04:23:24;;;;;;;5.45;2.72;;;13.60;99.90;;;;;;6139467;23;20026;-89
2022/06/28 04:32:12;;;;;;;5.40;2.50;;;13.80;99.90;;;;;;6064141;23;20027;-90
2022/06/28 04:34:37;;;;;;;6.27;2.50;;;13.80;99.90;;;;;;6139479;23;20441;-89
2022/06/28 04:37:03;;;;;;;4.00;2.30;;;13.80;99.90;;;;;;6164073;23;20243;-89
2022/06/28 04:39:29;;;;;;;5.15;2.38;;;13.90;99.90;;;;;;6164209;23;20057;-89
2022/06/28 04:41:55;;;;;;;4.70;2.37;;;13.90;99.90;;;;;;6164130;23;20085;-89
2022/06/28 04:44:23;;;;;;;4.30;2.45;;;13.90;99.90;;;;;;6139286;23;20366;-91
2022/06/28 04:46:49;;;;;;;5.45;2.53;;;13.90;99.90;;;;;;6139868;23;20019;-90
2022/06/28 04:49:15;;;;;;;5.47;2.40;;;13.90;99.90;;;;;;6163574;23;20110;-87
2022/06/28 04:51:56;;;;;;;4.97;2.53;;;13.90;99.90;;;;;;6164261;23;20256;-88
2022/06/28 04:54:22;;;;;;;5.88;2.70;;;14.00;99.90;;;;;;6139477;23;20383;-89
2022/06/28 04:56:47;;;;;;;5.30;2.65;;;14.00;99.90;;;;;;6139682;23;20034;-90
2022/06/28 04:59:13;;;;;;;6.80;2.90;;;14.00;99.90;;;;;;6164107;23;20023;-91
2022/06/28 05:01:39;;;;;;;4.77;2.50;;;14.10;99.90;;;;;;6139157;23;20255;-91
2022/06/28 05:04:04;;;;;;;5.73;2.73;;;14.10;99.90;;;;;;6163749;23;20275;-91
2022/06/28 05:07:14;;;;;;;5.10;2.57;;;14.20;99.90;;;;;;6164448;23;20543;-88
2022/06/28 05:10:05;;;;;;;4.97;2.75;;;14.20;99.90;;;;;;6164113;23;20309;-90
2022/06/28 05:37:07;;;;;;;6.43;2.38;;;16.70;99.90;;;;;;6276066;22;20020;-90
2022/06/28 05:39:52;;;;;;;5.07;2.70;;;16.60;99.90;;;;;;6249661;22;20027;-91
2022/06/28 05:44:53;;;;;;;5.63;2.60;;;16.40;99.90;;;;;;6143739;22;20083;-91
2022/06/28 05:47:19;;;;;;;5.25;2.33;;;16.30;99.90;;;;;;6217230;23;20445;-89
2022/06/28 05:49:45;;;;;;;5.70;2.53;;;16.30;99.90;;;;;;6216705;23;20015;-90
2022/06/28 05:52:10;;;;;;;4.10;2.13;;;16.20;99.90;;;;;;6242808;23;20048;-89
2022/06/28 05:54:36;;;;;;;5.93;2.40;;;16.20;99.90;;;;;;6217580;23;20012;-93
2022/06/28 05:57:02;;;;;;;5.07;2.65;;;16.20;99.90;;;;;;6242726;23;20012;-89
2022/06/28 05:59:28;;;;;;;4.47;2.10;;;16.20;99.90;;;;;;6242598;23;20086;-89
2022/06/28 06:01:55;;;;;;;4.38;2.40;;;16.20;99.90;;;;;;6217877;23;20063;-90
2022/06/28 06:04:24;;;;;;;7.05;2.47;;;16.20;99.90;;;;;;6218610;23;20020;-89
2022/06/28 06:06:50;;;;;;;5.35;2.30;;;16.30;99.90;;;;;;6243697;23;20091;-90
2022/06/28 06:09:16;;;;;;;5.20;2.58;;;16.40;99.90;;;;;;6243812;23;20051;-91
2022/06/28 06:11:42;;;;;;;6.10;2.80;;;16.50;99.90;;;;;;6244098;23;20023;-90
2022/06/28 06:14:08;;;;;;;4.80;2.30;;;16.50;99.90;;;;;;6244274;23;20397;-90
2022/06/28 06:16:33;;;;;;;5.60;2.22;;;16.60;99.90;;;;;;6218830;23;20029;-90
2022/06/28 06:18:59;;;;;;;5.50;2.45;;;16.80;99.90;;;;;;6244210;23;20012;-91
2022/06/28 06:21:25;;;;;;;5.53;2.38;;;17.00;99.90;;;;;;6220242;23;20095;-91
2022/06/28 06:23:51;;;;;;;5.75;2.47;;;17.10;99.90;;;;;;6220989;23;20055;-91
2022/06/28 06:26:16;;;;;;;4.72;2.30;;;17.30;99.90;;;;;;6221366;23;20173;-91
2022/06/28 06:28:42;;;;;;;4.95;2.13;;;17.90;99.90;;;;;;6221066;23;20110;-91
2022/06/28 06:31:12;;;;;;;5.63;2.17;;;18.50;99.90;;;;;;6246034;23;20087;-91
2022/06/28 06:33:38;;;;;;;4.88;2.10;;;18.70;99.90;;;;;;6220926;23;20012;-92
2022/06/28 06:36:11;;;;;;;;;;;18.50;99.90;;;;;;6221516;23;20457;-91
2022/06/28 06:38:40;;;;;;;5.43;2.28;;;18.40;99.90;;;;;;6220308;23;20252;-91
2022/06/28 06:41:13;;;;;;;5.53;2.25;;;18.30;99.90;;;;;;6220825;23;20024;-91
2022/06/28 06:43:38;;;;;;;4.22;2.10;;;18.20;99.90;;;;;;6219602;23;20016;-90
2022/06/28 06:46:04;;;;;;;4.38;1.88;;;18.20;99.90;;;;;;6245560;22;20094;-90
2022/06/28 06:48:30;;;;;;;4.70;2.20;;;18.10;99.90;;;;;;6246010;23;20445;-90
2022/06/28 06:51:11;;;;;;;3.92;1.80;;;18.00;99.90;;;;;;6220506;23;20004;-92
2022/06/28 07:09:20;;;;;;;3.25;1.45;;;18.80;99.90;;;;;;6192324;23;20101;-89
2022/06/28 07:11:48;;;;;;;6.50;2.22;;;19.00;99.90;;;;;;6160586;23;20028;-88
2022/06/28 07:14:18;;;;;;;4.60;1.70;;;19.10;99.90;;;;;;6135976;23;20021;-89
2022/06/28 07:16:45;;;;;;;4.40;1.70;;;19.20;99.90;;;;;;6160603;23;20469;-87
2022/06/28 07:27:23;;;;;;;2.05;0.95;;;19.50;99.90;;;;;;6253017;22;20026;-88
2022/06/28 07:29:49;;;;;;;3.05;0.82;;;19.40;99.90;;;;;;6250671;22;20019;-89
2022/06/28 07:32:16;;;;;;;3.47;0.90;;;19.30;99.90;;;;;;6249915;22;20016;-88
2022/06/28 07:34:45;;;;;;;3.38;1.10;;;19.50;99.90;;;;;;6225384;22;20019;-88
2022/06/28 07:37:14;;;;;;;2.78;1.05;;;19.60;99.90;;;;;;6225049;22;20020;-87
2022/06/28 07:39:39;;;;;;;2.97;0.85;;;19.80;99.90;;;;;;6225183;22;20020;-90
2022/06/28 07:42:05;;;;;;;4.43;0.80;;;19.60;99.90;;;;;;6250542;22;20019;-90
2022/06/28 07:44:31;;;;;;;3.35;0.70;;;19.30;99.90;;;;;;6225052;22;20149;-89
2022/06/28 07:47:00;;;;;;;2.85;0.68;;;19.10;99.90;;;;;;6225269;22;20016;-90
2022/06/28 07:52:33;;;;;;;2.30;0.70;;;19.00;99.90;;;;;;6250262;22;20058;-88
2022/06/28 07:54:58;;;;;;;2.80;0.60;;;19.00;99.90;;;;;;6250300;22;20062;-91
2022/06/28 07:57:24;;;;;;;2.60;0.50;;;18.90;99.90;;;;;;6250182;22;20012;-89
2022/06/28 07:59:50;;;;;;;1.60;0.60;;;18.90;99.90;;;;;;6225073;22;20023;-90
2022/06/28 08:02:16;;;;;;;1.48;0.70;;;18.80;99.90;;;;;;6250523;22;20464;-90
2022/06/28 08:04:41;;;;;;;2.42;0.60;;;18.70;99.90;;;;;;6250280;22;20020;-90
2022/06/28 08:07:29;;;;;;;1.85;0.63;;;18.70;99.90;;;;;;6224978;22;20011;-90
2022/06/28 08:10:09;;;;;;;1.52;0.70;;;18.70;99.90;;;;;;6224945;22;20065;-91
2022/06/28 08:12:38;;;;;;;2.13;0.63;;;18.70;99.90;;;;;;6250060;22;20012;-90
2022/06/28 08:15:16;;;;;;;1.63;0.50;;;18.80;99.90;;;;;;6250099;22;20029;-92
2022/06/28 08:17:42;;;;;;;1.75;0.65;;;18.80;99.90;;;;;;6225238;22;20016;-92
2022/06/28 08:20:08;;;;;;;2.10;0.55;;;18.80;99.90;;;;;;6250544;22;20027;-92
2022/06/28 08:22:34;;;;;;;;;;;18.70;99.90;;;;;;6225294;22;20023;-93
2022/06/28 08:25:00;;;;;;;1.55;0.40;;;18.70;99.90;;;;;;6250347;22;19937;-92
2022/06/28 08:27:29;;;;;;;3.22;0.73;;;18.60;99.90;;;;;;6225537;22;20020;-91
2022/06/28 08:29:54;;;;;;;;;;;18.60;99.90;;;;;;6225481;22;20018;-90
2022/06/28 08:32:23;;;;;;;2.05;0.47;;;18.60;99.90;;;;;;6224730;22;19994;-92
2022/06/28 08:35:06;;;;;;;1.55;0.40;;;18.60;99.90;;;;;;6248682;22;20437;-92
2022/06/28 08:37:35;;;;;;;0.65;0.32;;;18.60;99.90;;;;;;6224823;22;20047;-90
2022/06/28 08:40:09;;;;;;;1.60;0.47;;;18.60;99.90;;;;;;6225352;22;20020;-91
2022/06/28 08:42:40;;;;;;;0.75;0.20;;;18.60;99.90;;;;;;6249954;22;20016;-88
2022/06/28 08:50:38;;;;;;;1.30;0.38;;;18.60;99.90;;;;;;6246121;22;20024;-89
2022/06/28 08:53:05;;;;;;;1.17;0.32;;;18.60;99.90;;;;;;6194343;23;20016;-90
2022/06/28 08:55:32;;;;;;;1.17;0.43;;;18.60;99.90;;;;;;6194423;23;20081;-89
2022/06/28 09:04:02;;;;;;;2.17;0.47;;;18.70;99.90;;;;;;6185545;22;20036;-91
2022/06/28 09:07:17;;;;;;;1.15;0.50;;;18.70;99.90;;;;;;6184474;23;20017;-90
2022/06/28 09:09:47;;;;;;;1.27;0.40;;;18.70;99.90;;;;;;6184169;23;20021;-91
2022/06/28 09:12:13;;;;;;;2.45;0.43;;;18.70;99.90;;;;;;6159574;23;20031;-91
2022/06/28 09:18:03;;;;;;;1.25;0.30;;;18.70;99.90;;;;;;6098854;23;20026;-90
2022/06/28 09:21:33;;;;;;;2.28;0.55;;;18.80;99.90;;;;;;6075586;23;20364;-92
2022/06/28 09:26:40;;;;;;;1.63;0.30;;;18.80;99.90;;;;;;6185374;22;20048;-89
2022/06/28 09:29:14;;;;;;;1.58;0.57;;;18.90;99.90;;;;;;6184235;23;20064;-88
2022/06/28 09:31:55;;;;;;;3.17;0.30;;;19.00;99.90;;;;;;6184065;23;20017;-90
2022/06/28 09:34:26;;;;;;;1.73;0.43;;;19.00;99.90;;;;;;6159614;23;20466;-89
2022/06/28 09:36:55;;;;;;;0.85;0.30;;;19.00;99.90;;;;;;6156460;23;20021;-89
2022/06/28 09:39:31;;;;;;;3.10;0.43;;;19.00;99.90;;;;;;6183977;23;20019;-89
2022/06/28 09:41:57;;;;;;;1.63;0.30;;;19.00;99.90;;;;;;6159396;23;20116;-90
2022/06/28 09:44:27;;;;;;;3.08;0.40;;;19.00;99.90;;;;;;6159084;23;20016;-90
2022/06/28 09:46:54;;;;;;;0.80;0.30;;;19.00;99.90;;;;;;6183930;23;20347;-90
2022/06/28 09:49:26;;;;;;;0.98;0.38;;;18.90;99.90;;;;;;6159341;23;20020;-90
2022/06/28 09:51:53;;;;;;;1.15;0.30;;;18.90;99.90;;;;;;6184119;23;20028;-90
2022/06/28 09:54:20;;;;;;;0.85;0.30;;;18.80;99.90;;;;;;6183933;23;20013;-89
2022/06/28 09:56:54;;;;;;;1.60;0.38;;;18.80;99.90;;;;;;6158410;23;20013;-89
2022/06/28 09:59:21;;;;;;;1.40;0.30;;;18.80;99.90;;;;;;6183107;23;20013;-89
2022/06/28 10:01:48;;;;;;;1.42;0.40;;;18.80;99.90;;;;;;6158627;23;20025;-91
2022/06/28 10:04:14;;;;;;;1.73;0.32;;;18.70;99.90;;;;;;6157491;23;20021;-88
2022/06/28 10:06:40;;;;;;;0.77;0.10;;;18.70;99.90;;;;;;6158437;23;20052;-91
2022/06/28 10:09:06;;;;;;;2.20;0.50;;;18.70;99.90;;;;;;6159210;23;20025;-90
2022/06/28 10:15:01;;;;;;;3.20;0.45;;;18.70;99.90;;;;;;6158828;23;20013;-90
2022/06/28 10:20:16;;;;;;;2.10;0.50;;;18.70;99.90;;;;;;6173872;23;20347;-91
2022/06/28 10:22:42;;;;;;;1.52;0.30;;;18.70;99.90;;;;;;6158967;23;20017;-93
2022/06/28 10:25:17;;;;;;;0.65;0.20;;;18.80;99.90;;;;;;6160106;23;20033;-88
2022/06/28 10:27:48;;;;;;;1.17;0.30;;;18.90;99.90;;;;;;6190533;23;20020;-91
2022/06/28 10:30:21;;;;;;;2.85;0.40;;;19.00;99.90;;;;;;6192223;23;20040;-92
2022/06/28 10:33:33;;;;;;;2.28;0.60;;;19.10;99.90;;;;;;6189863;23;20063;-92
2022/06/28 10:36:14;;;;;;;1.20;0.35;;;19.30;99.90;;;;;;6161651;23;20020;-93
2022/06/28 10:39:08;;;;;;;3.05;0.50;;;19.40;99.90;;;;;;6163536;23;20330;-91
2022/06/28 10:41:38;;;;;;;2.00;0.55;;;19.50;99.90;;;;;;6188881;23;20056;-93
2022/06/28 10:44:13;;;;;;;1.88;0.50;;;19.70;99.90;;;;;;6188550;23;20461;-91
2022/06/28 10:46:41;;;;;;;2.35;0.85;;;19.70;99.90;;;;;;6188749;23;20048;-92
2022/06/28 10:49:09;;;;;;;2.45;0.50;;;19.80;99.90;;;;;;6189019;23;20013;-90
2022/06/28 10:52:13;;;;;;;2.55;0.40;;;19.80;99.90;;;;;;6188807;23;20074;-92
2022/06/28 12:23:53;;;;;;;3.08;0.95;;;21.00;99.90;;;;;;6204325;23;20021;-91
2022/06/28 12:26:20;;;;;;;2.92;0.70;;;21.10;99.90;;;;;;6165477;23;20021;-93
2022/06/28 12:31:22;;;;;;;2.53;0.77;;;21.00;99.90;;;;;;6254821;22;20429;-93
2022/06/28 12:34:06;;;;;;;4.00;1.38;;;21.10;99.90;;;;;;6224905;22;20020;-91
2022/06/28 12:42:01;;;;;;;2.13;0.55;;;21.10;99.90;;;;;;6167764;23;20031;-90
2022/06/28 13:01:01;;;;;;;1.50;0.47;;;22.50;99.90;;;;;;6215773;22;20048;-91
2022/06/28 13:06:02;;;;;;;1.08;0.40;;;22.30;99.90;;;;;;6162399;23;20027;-93
2022/06/28 13:08:28;;;;;;;1.33;0.40;;;22.10;99.90;;;;;;6015789;23;20029;-92
2022/06/28 13:14:44;;;;;;;1.42;0.40;;;22.10;99.90;;;;;;6050632;23;20019;-92
2022/06/28 13:59:15;;;;;;;0.95;0.30;;;22.50;99.90;;;;;;6245393;22;20024;-91
2022/06/28 14:01:46;;;;;;;0.98;0.32;;;22.70;99.90;;;;;;6219361;23;20031;-91
2022/06/28 14:04:15;;;;;;;1.98;0.40;;;22.90;99.90;;;;;;6194689;23;20051;-91
2022/06/28 14:06:42;;;;;;;0.77;0.40;;;23.10;99.90;;;;;;6218629;23;20012;-89
2022/06/28 14:09:07;;;;;;;;;;;23.20;97.00;;;;;;6194364;23;20143;-89
2022/06/28 14:11:33;;;;;;;1.00;0.30;;;23.10;92.60;;;;;;6194393;23;19919;-91
2022/06/28 14:13:59;;;;;;;0.60;0.30;;;23.00;96.30;;;;;;6193796;23;20070;-90
2022/06/28 14:16:25;;;;;;;1.65;0.50;;;22.80;96.90;;;;;;6193856;23;20020;-91
2022/06/28 14:18:51;;;;;;;1.33;0.20;;;22.70;97.70;;;;;;6218733;23;20008;-91
2022/06/28 14:21:17;;;;;;;1.05;0.20;;;22.60;97.80;;;;;;6193807;23;20020;-89
2022/06/28 14:23:42;;;;;;;1.15;0.32;;;22.70;94.30;;;;;;6218759;23;20345;-89
2022/06/28 14:26:08;;;;;;;0.57;0.20;;;22.70;96.30;;;;;;6218742;23;20035;-90
2022/06/28 14:28:34;;;;;;;3.45;0.30;;;22.60;96.50;;;;;;6193480;23;20426;-91
2022/06/28 14:31:00;;;;;;;1.67;0.40;;;22.50;96.60;;;;;;6218918;23;20016;-90
2022/06/28 14:33:26;;;;;;;0.77;0.30;;;22.40;96.80;;;;;;6193915;23;20342;-90
2022/06/28 14:35:53;;;;;;;1.17;0.20;;;22.40;97.20;;;;;;6194057;23;20016;-87
2022/06/28 14:38:22;;;;;;;1.50;0.30;;;22.40;97.20;;;;;;6218791;23;20023;-89
2022/06/28 14:40:48;;;;;;;1.33;0.20;;;22.50;95.80;;;;;;6193978;23;20016;-91
2022/06/28 14:43:14;;;;;;;0.60;0.28;;;22.60;95.80;;;;;;6220349;23;20410;-91
2022/06/28 14:45:42;;;;;;;0.82;0.25;;;22.60;94.90;;;;;;6195895;23;20374;-91
2022/06/28 14:48:10;;;;;;;1.45;0.50;;;22.70;94.50;;;;;;6195319;23;20438;-91
2022/06/28 14:50:36;;;;;;;2.42;0.28;;;22.80;94.10;;;;;;6195539;23;20051;-90
2022/06/28 14:53:09;;;;;;;1.13;0.50;;;22.80;94.70;;;;;;6195598;23;20438;-91
2022/06/28 14:55:35;;;;;;;1.13;0.30;;;22.90;94.10;;;;;;6221086;23;20064;-92
2022/06/28 15:15:52;;;;;;;0.30;0.20;;;23.30;94.40;;;;;;6265382;22;20024;-91
2022/06/28 15:18:17;;;;;;;0.45;0.20;;;23.30;94.70;;;;;;6251052;22;20020;-91
2022/06/28 15:20:43;;;;;;;1.85;0.30;;;23.30;95.00;;;;;;6225545;22;20098;-91
2022/06/28 15:44:04;;;;;;;0.93;0.20;;;22.70;96.20;;;;;;6276031;22;20030;-90
2022/06/28 15:46:33;;;;;;;1.42;0.30;;;22.60;96.50;;;;;;6225459;22;20016;-91
2022/06/28 16:41:33;;;;;;;1.45;0.40;;;21.80;93.60;;;;;;6276729;22;20020;-93
2022/06/28 16:43:59;;;;;;;1.13;0.40;;;21.80;93.60;;;;;;6225192;22;20023;-93
2022/06/28 16:46:27;;;;;;;2.88;0.32;;;21.80;93.60;;;;;;6250327;22;20050;-91
2022/06/28 16:49:09;;;;;;;1.88;0.30;;;21.80;93.10;;;;;;6225710;22;20050;-94
2022/06/28 16:51:40;;;;;;;0.65;0.20;;;21.90;92.80;;;;;;6250852;22;20063;-95
2022/06/28 16:59:17;;;;;;;1.08;0.40;;;22.00;92.60;;;;;;6277382;22;20046;-94
2022/06/28 17:01:43;;;;;;;0.65;0.20;;;22.00;92.60;;;;;;6225991;22;20053;-92
2022/06/28 17:04:09;;;;;;;2.08;0.50;;;22.00;92.10;;;;;;6227036;22;20162;-96
2022/06/28 17:09:18;;;;;;;1.40;0.40;;;22.00;91.90;;;;;;6277272;22;20015;-93
2022/06/28 17:16:55;;;;;;;2.42;0.60;;;22.00;92.00;;;;;;6284164;22;20023;-93
2022/06/28 17:19:20;;;;;;;0.95;0.40;;;22.10;92.20;;;;;;6229182;22;20169;-90
2022/06/28 17:21:48;;;;;;;1.80;0.45;;;22.00;92.40;;;;;;6225657;22;20015;-92
2022/06/28 17:24:20;;;;;;;2.35;0.50;;;22.00;92.30;;;;;;6217754;22;20012;-94
2022/06/28 17:26:48;;;;;;;2.35;0.52;;;21.90;92.20;;;;;;6225311;22;20012;-93
2022/06/28 17:29:14;;;;;;;0.75;0.30;;;21.90;92.00;;;;;;6250246;22;20054;-91
2022/06/28 17:31:43;;;;;;;4.03;0.80;;;21.90;92.30;;;;;;6225440;22;20023;-93
2022/06/28 17:34:09;;;;;;;2.70;1.25;;;21.90;92.30;;;;;;6225896;22;20020;-95
2022/06/28 17:36:36;;;;;;;1.95;0.60;;;21.90;92.10;;;;;;6226714;22;20027;-94
2022/06/28 17:39:24;;;;;;;;;;;;;;;;;;;;;
2022/06/28 17:41:54;;;;;;;1.08;0.50;;;21.80;92.20;;;;;;6252062;22;20019;-96
2022/06/28 17:44:25;;;;;;;1.63;0.77;;;21.80;92.20;;;;;;6227017;22;20062;-93
2022/06/28 17:46:53;;;;;;;1.35;0.40;;;21.80;91.90;;;;;;6227100;22;20015;-94
2022/06/28 17:49:42;;;;;;;3.15;0.93;;;21.70;92.10;;;;;;6227439;22;20499;-92
2022/06/28 17:52:08;;;;;;;1.00;0.38;;;21.70;92.30;;;;;;6235862;22;20046;-92
2022/06/28 17:54:40;;;;;;;1.67;0.57;;;21.70;92.60;;;;;;6251562;22;20016;-94
2022/06/28 17:57:09;;;;;;;1.38;0.50;;;21.70;92.70;;;;;;6226492;22;20019;-92
2022/06/28 17:59:36;;;;;;;1.85;0.80;;;21.60;92.60;;;;;;6227285;22;20323;-94
2022/06/28 18:02:01;;;;;;;2.45;0.55;;;21.60;92.50;;;;;;6251972;22;20110;-93
2022/06/28 18:04:27;;;;;;;3.03;0.90;;;21.60;92.50;;;;;;6227241;22;20102;-92
2022/06/28 18:06:53;;;;;;;1.10;0.50;;;21.50;92.60;;;;;;6226788;22;20011;-91
2022/06/28 18:09:19;;;;;;;2.95;0.85;;;21.50;92.70;;;;;;6226743;22;20484;-93
2022/06/28 18:11:47;;;;;;;2.95;0.60;;;21.40;92.90;;;;;;6227031;22;20016;-94
2022/06/28 18:14:13;;;;;;;1.45;0.80;;;21.40;93.50;;;;;;6226720;22;20024;-93
2022/06/28 18:43:47;;;;;;;1.00;0.60;;;20.90;97.40;;;;;;6278447;22;20035;-95
2022/06/28 18:46:13;;;;;;;1.27;0.60;;;20.80;97.70;;;;;;6226462;22;20020;-95
2022/06/28 18:48:38;;;;;;;1.95;0.50;;;20.80;97.90;;;;;;6226325;22;20019;-93
2022/06/28 18:51:04;;;;;;;2.47;0.60;;;20.70;98.20;;;;;;6226557;22;20023;-93
2022/06/28 18:53:30;;;;;;;1.00;0.45;;;20.60;98.50;;;;;;6226499;22;20043;-93
2022/06/28 18:55:56;;;;;;;1.58;0.50;;;20.60;98.90;;;;;;6226674;22;20019;-91
2022/06/28 18:58:22;;;;;;;2.72;0.70;;;20.50;99.30;;;;;;6226517;22;20069;-91
2022/06/28 19:00:49;;;;;;;1.50;0.70;;;20.50;99.60;;;;;;6226753;22;20061;-95
2022/06/28 19:03:14;;;;;;;1.50;0.40;;;20.40;99.90;;;;;;6226532;22;20015;-95
2022/06/28 19:05:40;;;;;;;2.10;0.52;;;20.40;99.90;;;;;;6226626;22;20015;-94
2022/06/28 19:08:07;;;;;;;2.15;0.50;;;20.40;99.90;;;;;;6251585;22;20051;-95
2022/06/28 19:10:34;;;;;;;3.33;0.60;;;20.30;99.90;;;;;;6251582;22;20027;-95
2022/06/28 19:13:00;;;;;;;2.28;0.70;;;20.30;99.90;;;;;;6226205;22;20015;-95
2022/06/28 19:15:26;;;;;;;1.35;0.70;;;20.30;99.90;;;;;;6226353;22;20502;-93
2022/06/28 19:17:52;;;;;;;1.63;0.60;;;20.20;99.90;;;;;;6226372;22;20028;-91
2022/06/28 19:20:18;;;;;;;2.17;0.68;;;20.20;99.90;;;;;;6226311;22;20016;-95
2022/06/28 19:22:44;;;;;;;2.65;0.60;;;20.10;99.90;;;;;;6225988;22;20012;-94
2022/06/28 19:25:12;;;;;;;2.72;0.75;;;20.10;99.90;;;;;;6226143;22;20016;-94
2022/06/28 19:27:39;;;;;;;1.88;0.50;;;20.10;99.90;;;;;;6251308;22;20073;-94
2022/06/28 19:30:06;;;;;;;1.20;0.60;;;20.00;99.90;;;;;;6251183;22;20465;-95
2022/06/28 19:32:32;;;;;;;1.80;0.75;;;20.00;99.90;;;;;;6251516;22;20437;-91
2022/06/28 19:34:57;;;;;;;1.83;0.68;;;19.90;99.90;;;;;;6225903;22;20022;-93
2022/06/28 19:37:23;;;;;;;2.13;0.65;;;19.90;99.90;;;;;;6251346;22;20026;-94
2022/06/28 19:39:49;;;;;;;1.65;0.57;;;19.80;99.90;;;;;;6226351;22;20015;-94
2022/06/28 19:42:15;;;;;;;2.92;0.70;;;19.80;99.90;;;;;;6226186;22;20413;-93
2022/06/28 19:44:40;;;;;;;2.70;0.60;;;19.80;99.90;;;;;;6250673;22;20024;-94
2022/06/28 19:47:06;;;;;;;2.60;0.75;;;19.70;99.90;;;;;;6225867;22;20352;-93
2022/06/28 19:49:32;;;;;;;1.75;0.60;;;19.70;99.90;;;;;;6225696;22;20019;-91
2022/06/28 19:52:00;;;;;;;2.65;0.80;;;19.70;99.90;;;;;;6225729;22;20015;-93
2022/06/28 19:54:26;;;;;;;1.80;0.90;;;19.60;99.90;;;;;;6251801;22;20074;-95
2022/06/28 19:56:52;;;;;;;3.40;1.10;;;19.60;99.90;;;;;;6225894;22;20016;-96
2022/06/28 19:59:18;;;;;;;2.40;0.70;;;19.60;99.90;;;;;;6225782;22;20432;-94
2022/06/28 20:01:45;;;;;;;1.55;0.80;;;19.50;99.90;;;;;;6225865;22;20016;-94
2022/06/28 20:04:10;;;;;;;4.20;0.82;;;19.50;99.90;;;;;;6225774;22;20046;-93
2022/06/28 20:06:36;;;;;;;2.20;0.93;;;19.40;99.90;;;;;;6226231;22;20008;-95
2022/06/28 20:09:03;;;;;;;3.95;1.15;;;19.40;99.90;;;;;;6226037;22;20023;-91
2022/06/28 20:11:29;;;;;;;2.63;0.70;;;19.40;99.90;;;;;;6225732;22;20016;-94
2022/06/28 20:13:57;;;;;;;1.27;0.65;;;19.30;99.90;;;;;;6251113;22;20184;-96
2022/06/28 20:16:23;;;;;;;2.78;0.95;;;19.20;99.90;;;;;;6225798;22;20486;-91
2022/06/28 20:18:49;;;;;;;2.67;0.90;;;19.20;99.90;;;;;;6225879;22;20015;-95
2022/06/28 20:21:15;;;;;;;2.13;1.05;;;19.10;99.90;;;;;;6225596;22;20413;-94
2022/06/28 20:23:41;;;;;;;2.63;1.00;;;19.10;99.90;;;;;;6251024;22;20024;-93
2022/06/28 20:26:13;;;;;;;1.63;0.80;;;19.00;99.90;;;;;;6226518;22;20041;-95
2022/06/28 20:31:14;;;;;;;1.70;0.90;;;18.90;99.90;;;;;;6245341;22;19915;-89
2022/06/28 20:33:39;;;;;;;3.97;1.10;;;18.90;99.90;;;;;;6193532;23;20034;-90
2022/06/28 20:36:06;;;;;;;1.90;1.15;;;18.80;99.90;;;;;;6195441;23;20082;-90